sensor_id;sensor_type;location;lat;lon;timestamp;P1;durP1;ratioP1;P2;durP2;ratioP2
3207;SDS011;1616;52.394;9.756;2024-01-16T00:01:59;3.17;;;1.40;;
3207;SDS011;1616;52.394;9.756;2024-01-16T00:04:25;2.63;;;2.03;;
3207;SDS011;1616;52.394;9.756;2024-01-16T00:06:51;3.30;;;1.20;;
3207;SDS011;1616;52.394;9.756;2024-01-16T00:09:17;3.77;;;1.13;;
3207;SDS011;1616;52.394;9.756;2024-01-16T00:11:43;1.00;;;0.90;;
3207;SDS011;1616;52.394;9.756;2024-01-16T00:14:08;1.20;;;1.10;;
3207;SDS011;1616;52.394;9.756;2024-01-16T00:16:44;4.30;;;1.30;;
3207;SDS011;1616;52.394;9.756;2024-01-16T00:19:11;1.73;;;1.10;;
3207;SDS011;1616;52.394;9.756;2024-01-16T00:21:43;2.33;;;1.10;;
3207;SDS011;1616;52.394;9.756;2024-01-16T00:24:16;2.70;;;1.00;;
3207;SDS011;1616;52.394;9.756;2024-01-16T00:26:42;2.60;;;1.00;;
3207;SDS011;1616;52.394;9.756;2024-01-16T00:29:08;1.33;;;0.93;;
3207;SDS011;1616;52.394;9.756;2024-01-16T00:31:40;6.70;;;1.10;;
3207;SDS011;1616;52.394;9.756;2024-01-16T00:34:06;1.63;;;1.10;;
3207;SDS011;1616;52.394;9.756;2024-01-16T00:36:31;2.20;;;0.97;;
3207;SDS011;1616;52.394;9.756;2024-01-16T00:38:57;4.80;;;0.90;;
3207;SDS011;1616;52.394;9.756;2024-01-16T00:41:22;3.73;;;0.97;;
3207;SDS011;1616;52.394;9.756;2024-01-16T00:43:48;1.67;;;0.93;;
3207;SDS011;1616;52.394;9.756;2024-01-16T00:46:14;1.87;;;0.70;;
3207;SDS011;1616;52.394;9.756;2024-01-16T00:48:40;3.13;;;0.87;;
3207;SDS011;1616;52.394;9.756;2024-01-16T00:51:06;4.60;;;0.80;;
3207;SDS011;1616;52.394;9.756;2024-01-16T00:53:32;1.00;;;0.67;;
3207;SDS011;1616;52.394;9.756;2024-01-16T00:55:57;1.20;;;0.70;;
3207;SDS011;1616;52.394;9.756;2024-01-16T00:58:23;3.53;;;0.70;;
3207;SDS011;1616;52.394;9.756;2024-01-16T01:00:49;0.90;;;0.60;;
3207;SDS011;1616;52.394;9.756;2024-01-16T01:03:15;3.80;;;1.00;;
3207;SDS011;1616;52.394;9.756;2024-01-16T01:05:40;1.10;;;0.67;;
3207;SDS011;1616;52.394;9.756;2024-01-16T01:08:06;1.10;;;0.70;;
3207;SDS011;1616;52.394;9.756;2024-01-16T01:10:32;2.40;;;0.67;;
3207;SDS011;1616;52.394;9.756;2024-01-16T01:12:58;1.50;;;0.63;;
3207;SDS011;1616;52.394;9.756;2024-01-16T01:15:24;1.43;;;0.80;;
3207;SDS011;1616;52.394;9.756;2024-01-16T01:17:50;2.40;;;1.00;;
3207;SDS011;1616;52.394;9.756;2024-01-16T01:20:17;1.13;;;0.90;;
3207;SDS011;1616;52.394;9.756;2024-01-16T01:22:43;1.20;;;0.90;;
3207;SDS011;1616;52.394;9.756;2024-01-16T01:25:10;2.07;;;1.10;;
3207;SDS011;1616;52.394;9.756;2024-01-16T01:27:37;3.13;;;0.97;;
3207;SDS011;1616;52.394;9.756;2024-01-16T01:30:03;8.60;;;1.20;;
3207;SDS011;1616;52.394;9.756;2024-01-16T01:32:29;1.30;;;1.00;;
3207;SDS011;1616;52.394;9.756;2024-01-16T01:34:56;3.00;;;1.53;;
3207;SDS011;1616;52.394;9.756;2024-01-16T01:37:21;1.40;;;0.90;;
3207;SDS011;1616;52.394;9.756;2024-01-16T01:39:47;1.30;;;1.20;;
3207;SDS011;1616;52.394;9.756;2024-01-16T01:42:12;1.90;;;1.13;;
3207;SDS011;1616;52.394;9.756;2024-01-16T01:44:40;4.50;;;1.20;;
3207;SDS011;1616;52.394;9.756;2024-01-16T01:47:06;1.60;;;1.10;;
3207;SDS011;1616;52.394;9.756;2024-01-16T01:49:33;2.30;;;1.00;;
3207;SDS011;1616;52.394;9.756;2024-01-16T01:52:00;2.93;;;1.27;;
3207;SDS011;1616;52.394;9.756;2024-01-16T01:54:26;3.50;;;1.40;;
3207;SDS011;1616;52.394;9.756;2024-01-16T01:56:52;5.57;;;1.10;;
3207;SDS011;1616;52.394;9.756;2024-01-16T01:59:18;3.63;;;1.20;;
3207;SDS011;1616;52.394;9.756;2024-01-16T02:01:47;6.63;;;1.20;;
3207;SDS011;1616;52.394;9.756;2024-01-16T02:04:14;3.10;;;1.50;;
3207;SDS011;1616;52.394;9.756;2024-01-16T02:06:41;5.77;;;1.10;;
3207;SDS011;1616;52.394;9.756;2024-01-16T02:09:09;3.53;;;1.10;;
3207;SDS011;1616;52.394;9.756;2024-01-16T02:11:41;6.43;;;1.50;;
3207;SDS011;1616;52.394;9.756;2024-01-16T02:14:08;1.20;;;1.10;;
3207;SDS011;1616;52.394;9.756;2024-01-16T02:16:38;1.33;;;0.93;;
3207;SDS011;1616;52.394;9.756;2024-01-16T02:19:06;1.40;;;1.07;;
3207;SDS011;1616;52.394;9.756;2024-01-16T02:21:35;1.20;;;0.80;;
3207;SDS011;1616;52.394;9.756;2024-01-16T02:24:05;1.50;;;0.90;;
3207;SDS011;1616;52.394;9.756;2024-01-16T02:26:31;1.50;;;0.90;;
3207;SDS011;1616;52.394;9.756;2024-01-16T02:28:57;1.77;;;1.27;;
3207;SDS011;1616;52.394;9.756;2024-01-16T02:31:25;1.40;;;0.80;;
3207;SDS011;1616;52.394;9.756;2024-01-16T02:33:51;4.40;;;1.10;;
3207;SDS011;1616;52.394;9.756;2024-01-16T02:36:16;3.67;;;0.93;;
3207;SDS011;1616;52.394;9.756;2024-01-16T02:38:42;1.40;;;0.90;;
3207;SDS011;1616;52.394;9.756;2024-01-16T02:41:08;3.10;;;0.80;;
3207;SDS011;1616;52.394;9.756;2024-01-16T02:43:33;3.40;;;1.10;;
3207;SDS011;1616;52.394;9.756;2024-01-16T02:45:59;2.20;;;0.90;;
3207;SDS011;1616;52.394;9.756;2024-01-16T02:48:24;1.60;;;0.90;;
3207;SDS011;1616;52.394;9.756;2024-01-16T02:50:50;1.50;;;0.83;;
3207;SDS011;1616;52.394;9.756;2024-01-16T02:53:16;1.77;;;1.00;;
3207;SDS011;1616;52.394;9.756;2024-01-16T02:55:41;1.53;;;0.87;;
3207;SDS011;1616;52.394;9.756;2024-01-16T02:58:07;1.10;;;0.80;;
3207;SDS011;1616;52.394;9.756;2024-01-16T03:00:33;4.53;;;1.00;;
3207;SDS011;1616;52.394;9.756;2024-01-16T03:02:58;4.30;;;0.80;;
3207;SDS011;1616;52.394;9.756;2024-01-16T03:05:24;1.63;;;1.00;;
3207;SDS011;1616;52.394;9.756;2024-01-16T03:07:49;1.97;;;0.90;;
3207;SDS011;1616;52.394;9.756;2024-01-16T03:10:15;5.23;;;0.90;;
3207;SDS011;1616;52.394;9.756;2024-01-16T03:12:41;5.00;;;1.17;;
3207;SDS011;1616;52.394;9.756;2024-01-16T03:15:07;6.83;;;1.10;;
3207;SDS011;1616;52.394;9.756;2024-01-16T03:17:33;1.67;;;0.97;;
3207;SDS011;1616;52.394;9.756;2024-01-16T03:19:59;2.67;;;0.83;;
3207;SDS011;1616;52.394;9.756;2024-01-16T03:22:24;1.50;;;0.97;;
3207;SDS011;1616;52.394;9.756;2024-01-16T03:24:51;2.23;;;1.00;;
3207;SDS011;1616;52.394;9.756;2024-01-16T03:27:17;4.07;;;1.00;;
3207;SDS011;1616;52.394;9.756;2024-01-16T03:29:43;3.53;;;1.83;;
3207;SDS011;1616;52.394;9.756;2024-01-16T03:32:09;3.67;;;1.67;;
3207;SDS011;1616;52.394;9.756;2024-01-16T03:34:34;2.33;;;1.13;;
3207;SDS011;1616;52.394;9.756;2024-01-16T03:37:00;3.10;;;1.00;;
3207;SDS011;1616;52.394;9.756;2024-01-16T03:39:25;4.07;;;1.30;;
3207;SDS011;1616;52.394;9.756;2024-01-16T03:41:51;5.20;;;1.20;;
3207;SDS011;1616;52.394;9.756;2024-01-16T03:44:17;3.90;;;0.97;;
3207;SDS011;1616;52.394;9.756;2024-01-16T03:46:43;3.00;;;0.97;;
3207;SDS011;1616;52.394;9.756;2024-01-16T03:49:09;5.30;;;1.07;;
3207;SDS011;1616;52.394;9.756;2024-01-16T03:51:35;5.10;;;1.20;;
3207;SDS011;1616;52.394;9.756;2024-01-16T03:54:02;1.40;;;1.00;;
3207;SDS011;1616;52.394;9.756;2024-01-16T03:56:28;2.50;;;1.30;;
3207;SDS011;1616;52.394;9.756;2024-01-16T03:58:54;4.47;;;1.60;;
3207;SDS011;1616;52.394;9.756;2024-01-16T04:01:29;2.90;;;1.17;;
3207;SDS011;1616;52.394;9.756;2024-01-16T04:03:56;2.10;;;1.23;;
3207;SDS011;1616;52.394;9.756;2024-01-16T04:06:21;9.07;;;1.80;;
3207;SDS011;1616;52.394;9.756;2024-01-16T04:08:47;5.00;;;1.33;;
3207;SDS011;1616;52.394;9.756;2024-01-16T04:11:14;6.90;;;1.87;;
3207;SDS011;1616;52.394;9.756;2024-01-16T04:13:40;5.33;;;1.10;;
3207;SDS011;1616;52.394;9.756;2024-01-16T04:16:06;7.80;;;2.03;;
3207;SDS011;1616;52.394;9.756;2024-01-16T04:18:35;6.37;;;1.40;;
3207;SDS011;1616;52.394;9.756;2024-01-16T04:21:04;6.80;;;1.30;;
3207;SDS011;1616;52.394;9.756;2024-01-16T04:23:30;4.67;;;1.30;;
3207;SDS011;1616;52.394;9.756;2024-01-16T04:25:55;4.60;;;1.20;;
3207;SDS011;1616;52.394;9.756;2024-01-16T04:28:21;1.87;;;1.37;;
3207;SDS011;1616;52.394;9.756;2024-01-16T04:30:46;2.73;;;1.20;;
3207;SDS011;1616;52.394;9.756;2024-01-16T04:33:12;4.43;;;1.07;;
3207;SDS011;1616;52.394;9.756;2024-01-16T04:35:38;8.03;;;1.30;;
3207;SDS011;1616;52.394;9.756;2024-01-16T04:38:03;5.00;;;1.10;;
3207;SDS011;1616;52.394;9.756;2024-01-16T04:40:29;6.03;;;1.40;;
3207;SDS011;1616;52.394;9.756;2024-01-16T04:42:54;2.77;;;1.20;;
3207;SDS011;1616;52.394;9.756;2024-01-16T04:45:20;8.13;;;1.30;;
3207;SDS011;1616;52.394;9.756;2024-01-16T04:47:46;3.33;;;1.13;;
3207;SDS011;1616;52.394;9.756;2024-01-16T04:50:11;1.70;;;1.10;;
3207;SDS011;1616;52.394;9.756;2024-01-16T04:52:38;3.63;;;1.30;;
3207;SDS011;1616;52.394;9.756;2024-01-16T04:55:04;4.53;;;1.07;;
3207;SDS011;1616;52.394;9.756;2024-01-16T04:57:30;8.70;;;1.33;;
3207;SDS011;1616;52.394;9.756;2024-01-16T04:59:55;7.40;;;1.80;;
3207;SDS011;1616;52.394;9.756;2024-01-16T05:02:21;3.63;;;1.30;;
3207;SDS011;1616;52.394;9.756;2024-01-16T05:04:46;2.23;;;1.10;;
3207;SDS011;1616;52.394;9.756;2024-01-16T05:07:14;9.40;;;1.40;;
3207;SDS011;1616;52.394;9.756;2024-01-16T05:09:40;3.33;;;1.23;;
3207;SDS011;1616;52.394;9.756;2024-01-16T05:12:06;5.53;;;1.50;;
3207;SDS011;1616;52.394;9.756;2024-01-16T05:14:32;5.47;;;1.40;;
3207;SDS011;1616;52.394;9.756;2024-01-16T05:16:57;6.40;;;1.50;;
3207;SDS011;1616;52.394;9.756;2024-01-16T05:19:23;4.43;;;1.20;;
3207;SDS011;1616;52.394;9.756;2024-01-16T05:21:49;8.80;;;1.30;;
3207;SDS011;1616;52.394;9.756;2024-01-16T05:24:14;11.13;;;1.43;;
3207;SDS011;1616;52.394;9.756;2024-01-16T05:26:40;6.20;;;1.40;;
3207;SDS011;1616;52.394;9.756;2024-01-16T05:29:05;3.97;;;1.77;;
3207;SDS011;1616;52.394;9.756;2024-01-16T05:31:32;4.43;;;1.33;;
3207;SDS011;1616;52.394;9.756;2024-01-16T05:33:57;3.87;;;1.60;;
3207;SDS011;1616;52.394;9.756;2024-01-16T05:36:26;10.53;;;1.33;;
3207;SDS011;1616;52.394;9.756;2024-01-16T05:38:52;6.20;;;1.30;;
3207;SDS011;1616;52.394;9.756;2024-01-16T05:41:18;5.00;;;1.40;;
3207;SDS011;1616;52.394;9.756;2024-01-16T05:43:46;3.83;;;1.37;;
3207;SDS011;1616;52.394;9.756;2024-01-16T05:46:12;3.03;;;1.40;;
3207;SDS011;1616;52.394;9.756;2024-01-16T05:48:38;3.80;;;1.53;;
3207;SDS011;1616;52.394;9.756;2024-01-16T05:51:04;8.60;;;1.60;;
3207;SDS011;1616;52.394;9.756;2024-01-16T05:53:30;2.50;;;1.80;;
3207;SDS011;1616;52.394;9.756;2024-01-16T05:55:55;2.97;;;1.60;;
3207;SDS011;1616;52.394;9.756;2024-01-16T05:58:22;8.47;;;1.97;;
3207;SDS011;1616;52.394;9.756;2024-01-16T06:00:47;8.93;;;2.47;;
3207;SDS011;1616;52.394;9.756;2024-01-16T06:03:13;8.93;;;3.03;;
3207;SDS011;1616;52.394;9.756;2024-01-16T06:05:39;3.33;;;1.90;;
3207;SDS011;1616;52.394;9.756;2024-01-16T06:08:04;10.37;;;1.93;;
3207;SDS011;1616;52.394;9.756;2024-01-16T06:10:31;7.13;;;1.97;;
3207;SDS011;1616;52.394;9.756;2024-01-16T06:12:57;7.60;;;2.37;;
3207;SDS011;1616;52.394;9.756;2024-01-16T06:15:22;9.97;;;2.97;;
3207;SDS011;1616;52.394;9.756;2024-01-16T06:17:48;2.17;;;1.97;;
3207;SDS011;1616;52.394;9.756;2024-01-16T06:20:14;15.83;;;3.17;;
3207;SDS011;1616;52.394;9.756;2024-01-16T06:22:40;3.07;;;2.50;;
3207;SDS011;1616;52.394;9.756;2024-01-16T06:25:07;4.27;;;2.17;;
3207;SDS011;1616;52.394;9.756;2024-01-16T06:27:33;3.00;;;1.60;;
3207;SDS011;1616;52.394;9.756;2024-01-16T06:30:01;8.07;;;2.63;;
3207;SDS011;1616;52.394;9.756;2024-01-16T06:32:29;6.60;;;1.73;;
3207;SDS011;1616;52.394;9.756;2024-01-16T06:34:54;2.47;;;1.87;;
3207;SDS011;1616;52.394;9.756;2024-01-16T06:37:20;9.53;;;2.33;;
3207;SDS011;1616;52.394;9.756;2024-01-16T06:39:46;7.43;;;2.53;;
3207;SDS011;1616;52.394;9.756;2024-01-16T06:42:11;9.87;;;2.37;;
3207;SDS011;1616;52.394;9.756;2024-01-16T06:44:37;5.07;;;2.43;;
3207;SDS011;1616;52.394;9.756;2024-01-16T06:47:03;3.93;;;2.27;;
3207;SDS011;1616;52.394;9.756;2024-01-16T06:49:29;8.90;;;2.63;;
3207;SDS011;1616;52.394;9.756;2024-01-16T06:51:54;7.37;;;2.67;;
3207;SDS011;1616;52.394;9.756;2024-01-16T06:54:20;7.10;;;2.83;;
3207;SDS011;1616;52.394;9.756;2024-01-16T06:56:46;5.87;;;3.03;;
3207;SDS011;1616;52.394;9.756;2024-01-16T06:59:14;6.87;;;2.70;;
3207;SDS011;1616;52.394;9.756;2024-01-16T07:01:41;11.83;;;2.50;;
3207;SDS011;1616;52.394;9.756;2024-01-16T07:04:06;3.30;;;2.00;;
3207;SDS011;1616;52.394;9.756;2024-01-16T07:06:32;8.33;;;2.70;;
3207;SDS011;1616;52.394;9.756;2024-01-16T07:08:57;5.23;;;2.20;;
3207;SDS011;1616;52.394;9.756;2024-01-16T07:11:23;8.23;;;3.10;;
3207;SDS011;1616;52.394;9.756;2024-01-16T07:13:49;8.83;;;2.50;;
3207;SDS011;1616;52.394;9.756;2024-01-16T07:16:15;17.23;;;2.77;;
3207;SDS011;1616;52.394;9.756;2024-01-16T07:18:40;4.73;;;2.27;;
3207;SDS011;1616;52.394;9.756;2024-01-16T07:21:18;7.03;;;2.67;;
3207;SDS011;1616;52.394;9.756;2024-01-16T07:23:44;3.07;;;2.07;;
3207;SDS011;1616;52.394;9.756;2024-01-16T07:26:10;4.23;;;2.17;;
3207;SDS011;1616;52.394;9.756;2024-01-16T07:28:35;8.20;;;2.50;;
3207;SDS011;1616;52.394;9.756;2024-01-16T07:31:01;11.63;;;2.73;;
3207;SDS011;1616;52.394;9.756;2024-01-16T07:33:26;7.03;;;2.90;;
3207;SDS011;1616;52.394;9.756;2024-01-16T07:35:52;7.63;;;2.27;;
3207;SDS011;1616;52.394;9.756;2024-01-16T07:38:18;12.23;;;2.80;;
3207;SDS011;1616;52.394;9.756;2024-01-16T07:40:44;11.67;;;2.97;;
3207;SDS011;1616;52.394;9.756;2024-01-16T07:43:09;4.60;;;2.10;;
3207;SDS011;1616;52.394;9.756;2024-01-16T07:45:35;5.00;;;2.30;;
3207;SDS011;1616;52.394;9.756;2024-01-16T07:48:01;5.37;;;2.13;;
3207;SDS011;1616;52.394;9.756;2024-01-16T07:50:27;20.53;;;3.40;;
3207;SDS011;1616;52.394;9.756;2024-01-16T07:52:52;4.83;;;2.20;;
3207;SDS011;1616;52.394;9.756;2024-01-16T07:55:18;4.07;;;2.43;;
3207;SDS011;1616;52.394;9.756;2024-01-16T07:57:44;9.73;;;3.23;;
3207;SDS011;1616;52.394;9.756;2024-01-16T08:00:10;5.93;;;2.90;;
3207;SDS011;1616;52.394;9.756;2024-01-16T08:02:37;3.87;;;2.37;;
3207;SDS011;1616;52.394;9.756;2024-01-16T08:05:03;3.77;;;2.63;;
3207;SDS011;1616;52.394;9.756;2024-01-16T08:07:29;10.13;;;2.53;;
3207;SDS011;1616;52.394;9.756;2024-01-16T08:09:54;6.33;;;2.70;;
3207;SDS011;1616;52.394;9.756;2024-01-16T08:12:21;4.87;;;2.70;;
3207;SDS011;1616;52.394;9.756;2024-01-16T08:14:47;9.70;;;2.80;;
3207;SDS011;1616;52.394;9.756;2024-01-16T08:17:12;8.83;;;2.70;;
3207;SDS011;1616;52.394;9.756;2024-01-16T08:19:39;8.43;;;4.40;;
3207;SDS011;1616;52.394;9.756;2024-01-16T08:22:05;7.93;;;3.40;;
3207;SDS011;1616;52.394;9.756;2024-01-16T08:24:32;3.37;;;2.57;;
3207;SDS011;1616;52.394;9.756;2024-01-16T08:26:58;8.60;;;2.87;;
3207;SDS011;1616;52.394;9.756;2024-01-16T08:29:24;13.00;;;4.60;;
3207;SDS011;1616;52.394;9.756;2024-01-16T08:31:50;7.63;;;2.87;;
3207;SDS011;1616;52.394;9.756;2024-01-16T08:34:19;5.80;;;2.33;;
3207;SDS011;1616;52.394;9.756;2024-01-16T08:36:45;4.00;;;2.40;;
3207;SDS011;1616;52.394;9.756;2024-01-16T08:39:11;10.03;;;2.20;;
3207;SDS011;1616;52.394;9.756;2024-01-16T08:41:36;7.60;;;3.00;;
3207;SDS011;1616;52.394;9.756;2024-01-16T08:44:02;7.80;;;3.10;;
3207;SDS011;1616;52.394;9.756;2024-01-16T08:46:29;8.07;;;3.37;;
3207;SDS011;1616;52.394;9.756;2024-01-16T08:48:55;9.03;;;3.40;;
3207;SDS011;1616;52.394;9.756;2024-01-16T08:51:21;5.50;;;3.33;;
3207;SDS011;1616;52.394;9.756;2024-01-16T08:53:47;9.17;;;2.70;;
3207;SDS011;1616;52.394;9.756;2024-01-16T08:56:12;4.40;;;2.33;;
3207;SDS011;1616;52.394;9.756;2024-01-16T08:58:38;12.33;;;2.50;;
3207;SDS011;1616;52.394;9.756;2024-01-16T09:01:05;7.80;;;2.90;;
3207;SDS011;1616;52.394;9.756;2024-01-16T09:03:34;6.20;;;3.00;;
3207;SDS011;1616;52.394;9.756;2024-01-16T09:06:00;5.27;;;2.93;;
3207;SDS011;1616;52.394;9.756;2024-01-16T09:08:26;5.53;;;2.73;;
3207;SDS011;1616;52.394;9.756;2024-01-16T09:10:52;7.50;;;2.90;;
3207;SDS011;1616;52.394;9.756;2024-01-16T09:13:19;3.60;;;3.30;;
3207;SDS011;1616;52.394;9.756;2024-01-16T09:15:45;6.40;;;2.53;;
3207;SDS011;1616;52.394;9.756;2024-01-16T09:18:12;5.90;;;5.30;;
3207;SDS011;1616;52.394;9.756;2024-01-16T09:20:38;6.40;;;3.67;;
3207;SDS011;1616;52.394;9.756;2024-01-16T09:23:04;8.77;;;4.30;;
3207;SDS011;1616;52.394;9.756;2024-01-16T09:25:29;6.00;;;3.27;;
3207;SDS011;1616;52.394;9.756;2024-01-16T09:27:55;4.70;;;3.53;;
3207;SDS011;1616;52.394;9.756;2024-01-16T09:30:20;5.67;;;2.57;;
3207;SDS011;1616;52.394;9.756;2024-01-16T09:32:48;4.83;;;2.83;;
3207;SDS011;1616;52.394;9.756;2024-01-16T09:35:14;2.90;;;2.13;;
3207;SDS011;1616;52.394;9.756;2024-01-16T09:37:40;4.70;;;3.13;;
3207;SDS011;1616;52.394;9.756;2024-01-16T09:40:06;3.77;;;2.93;;
3207;SDS011;1616;52.394;9.756;2024-01-16T09:42:32;3.07;;;2.60;;
3207;SDS011;1616;52.394;9.756;2024-01-16T09:44:58;4.43;;;2.60;;
3207;SDS011;1616;52.394;9.756;2024-01-16T09:47:25;13.83;;;2.57;;
3207;SDS011;1616;52.394;9.756;2024-01-16T09:49:52;11.97;;;2.47;;
3207;SDS011;1616;52.394;9.756;2024-01-16T09:52:19;6.33;;;3.17;;
3207;SDS011;1616;52.394;9.756;2024-01-16T09:54:45;4.03;;;3.63;;
3207;SDS011;1616;52.394;9.756;2024-01-16T09:57:11;3.40;;;2.50;;
3207;SDS011;1616;52.394;9.756;2024-01-16T09:59:38;7.40;;;2.77;;
3207;SDS011;1616;52.394;9.756;2024-01-16T10:02:05;4.23;;;2.27;;
3207;SDS011;1616;52.394;9.756;2024-01-16T10:04:33;7.27;;;3.50;;
3207;SDS011;1616;52.394;9.756;2024-01-16T10:06:59;10.40;;;1.83;;
3207;SDS011;1616;52.394;9.756;2024-01-16T10:09:27;5.13;;;2.30;;
3207;SDS011;1616;52.394;9.756;2024-01-16T10:11:53;8.23;;;2.13;;
3207;SDS011;1616;52.394;9.756;2024-01-16T10:14:19;5.53;;;1.90;;
3207;SDS011;1616;52.394;9.756;2024-01-16T10:17:04;6.13;;;2.53;;
3207;SDS011;1616;52.394;9.756;2024-01-16T10:19:51;5.60;;;2.40;;
3207;SDS011;1616;52.394;9.756;2024-01-16T10:22:21;3.20;;;2.47;;
3207;SDS011;1616;52.394;9.756;2024-01-16T10:24:50;10.57;;;2.57;;
3207;SDS011;1616;52.394;9.756;2024-01-16T10:27:28;4.33;;;2.80;;
3207;SDS011;1616;52.394;9.756;2024-01-16T10:29:56;2.83;;;2.37;;
3207;SDS011;1616;52.394;9.756;2024-01-16T10:32:33;10.17;;;2.37;;
3207;SDS011;1616;52.394;9.756;2024-01-16T10:35:03;2.47;;;2.27;;
3207;SDS011;1616;52.394;9.756;2024-01-16T10:37:49;4.13;;;2.37;;
3207;SDS011;1616;52.394;9.756;2024-01-16T10:42:42;2.20;;;1.93;;
3207;SDS011;1616;52.394;9.756;2024-01-16T10:45:11;9.80;;;2.03;;
3207;SDS011;1616;52.394;9.756;2024-01-16T10:47:43;6.40;;;2.00;;
3207;SDS011;1616;52.394;9.756;2024-01-16T10:50:11;2.07;;;1.87;;
3207;SDS011;1616;52.394;9.756;2024-01-16T10:52:40;3.60;;;2.20;;
3207;SDS011;1616;52.394;9.756;2024-01-16T10:55:27;4.97;;;2.00;;
3207;SDS011;1616;52.394;9.756;2024-01-16T10:57:54;5.90;;;2.97;;
3207;SDS011;1616;52.394;9.756;2024-01-16T11:00:21;5.43;;;2.40;;
3207;SDS011;1616;52.394;9.756;2024-01-16T11:02:57;3.87;;;1.70;;
3207;SDS011;1616;52.394;9.756;2024-01-16T11:05:26;5.67;;;3.47;;
3207;SDS011;1616;52.394;9.756;2024-01-16T11:07:55;5.20;;;1.70;;
3207;SDS011;1616;52.394;9.756;2024-01-16T11:10:24;13.40;;;2.73;;
3207;SDS011;1616;52.394;9.756;2024-01-16T11:12:53;6.13;;;2.20;;
3207;SDS011;1616;52.394;9.756;2024-01-16T11:15:20;3.33;;;2.47;;
3207;SDS011;1616;52.394;9.756;2024-01-16T11:17:46;3.00;;;2.50;;
3207;SDS011;1616;52.394;9.756;2024-01-16T11:20:13;8.67;;;2.13;;
3207;SDS011;1616;52.394;9.756;2024-01-16T11:22:41;3.10;;;2.33;;
3207;SDS011;1616;52.394;9.756;2024-01-16T11:25:13;2.93;;;2.30;;
3207;SDS011;1616;52.394;9.756;2024-01-16T11:27:41;3.47;;;2.10;;
3207;SDS011;1616;52.394;9.756;2024-01-16T11:30:08;3.87;;;2.60;;
3207;SDS011;1616;52.394;9.756;2024-01-16T11:32:40;6.20;;;2.43;;
3207;SDS011;1616;52.394;9.756;2024-01-16T11:35:07;6.20;;;2.10;;
3207;SDS011;1616;52.394;9.756;2024-01-16T11:37:33;5.10;;;2.60;;
3207;SDS011;1616;52.394;9.756;2024-01-16T11:42:52;4.23;;;2.20;;
3207;SDS011;1616;52.394;9.756;2024-01-16T11:48:09;3.33;;;2.10;;
3207;SDS011;1616;52.394;9.756;2024-01-16T11:50:38;2.60;;;2.10;;
3207;SDS011;1616;52.394;9.756;2024-01-16T11:53:05;7.20;;;2.23;;
3207;SDS011;1616;52.394;9.756;2024-01-16T11:55:34;2.93;;;2.20;;
3207;SDS011;1616;52.394;9.756;2024-01-16T12:00:49;5.20;;;2.27;;
3207;SDS011;1616;52.394;9.756;2024-01-16T12:03:19;5.63;;;2.73;;
3207;SDS011;1616;52.394;9.756;2024-01-16T12:05:56;7.10;;;2.63;;
3207;SDS011;1616;52.394;9.756;2024-01-16T12:08:27;4.07;;;2.83;;
3207;SDS011;1616;52.394;9.756;2024-01-16T12:10:53;8.20;;;2.13;;
3207;SDS011;1616;52.394;9.756;2024-01-16T12:13:19;3.73;;;2.00;;
3207;SDS011;1616;52.394;9.756;2024-01-16T12:15:45;5.13;;;2.27;;
3207;SDS011;1616;52.394;9.756;2024-01-16T12:18:17;5.10;;;3.07;;
3207;SDS011;1616;52.394;9.756;2024-01-16T12:20:43;6.23;;;1.80;;
3207;SDS011;1616;52.394;9.756;2024-01-16T12:23:09;5.03;;;2.30;;
3207;SDS011;1616;52.394;9.756;2024-01-16T12:25:35;6.60;;;2.90;;
3207;SDS011;1616;52.394;9.756;2024-01-16T12:28:05;5.20;;;1.90;;
3207;SDS011;1616;52.394;9.756;2024-01-16T12:30:33;9.83;;;2.10;;
3207;SDS011;1616;52.394;9.756;2024-01-16T12:33:10;4.67;;;2.97;;
3207;SDS011;1616;52.394;9.756;2024-01-16T12:35:40;3.00;;;2.60;;
3207;SDS011;1616;52.394;9.756;2024-01-16T12:38:07;3.80;;;2.93;;
3207;SDS011;1616;52.394;9.756;2024-01-16T12:40:35;6.90;;;2.90;;
3207;SDS011;1616;52.394;9.756;2024-01-16T12:43:02;7.20;;;2.83;;
3207;SDS011;1616;52.394;9.756;2024-01-16T12:45:28;2.90;;;2.13;;
3207;SDS011;1616;52.394;9.756;2024-01-16T12:47:54;4.87;;;3.47;;
3207;SDS011;1616;52.394;9.756;2024-01-16T12:50:23;6.77;;;3.10;;
3207;SDS011;1616;52.394;9.756;2024-01-16T12:53:05;4.33;;;3.20;;
3207;SDS011;1616;52.394;9.756;2024-01-16T12:55:39;3.07;;;2.80;;
3207;SDS011;1616;52.394;9.756;2024-01-16T13:00:41;4.03;;;3.57;;
3207;SDS011;1616;52.394;9.756;2024-01-16T13:03:07;5.33;;;3.57;;
3207;SDS011;1616;52.394;9.756;2024-01-16T13:05:39;6.00;;;3.60;;
3207;SDS011;1616;52.394;9.756;2024-01-16T13:08:05;3.87;;;3.23;;
3207;SDS011;1616;52.394;9.756;2024-01-16T13:10:31;13.90;;;4.27;;
3207;SDS011;1616;52.394;9.756;2024-01-16T13:15:42;6.23;;;4.30;;
3207;SDS011;1616;52.394;9.756;2024-01-16T13:18:21;6.07;;;4.63;;
3207;SDS011;1616;52.394;9.756;2024-01-16T13:20:55;6.40;;;4.20;;
3207;SDS011;1616;52.394;9.756;2024-01-16T13:23:25;4.97;;;3.83;;
3207;SDS011;1616;52.394;9.756;2024-01-16T13:25:51;4.97;;;4.40;;
3207;SDS011;1616;52.394;9.756;2024-01-16T13:28:18;9.17;;;5.70;;
3207;SDS011;1616;52.394;9.756;2024-01-16T13:30:45;10.90;;;4.90;;
3207;SDS011;1616;52.394;9.756;2024-01-16T13:33:12;7.27;;;5.13;;
3207;SDS011;1616;52.394;9.756;2024-01-16T13:35:41;12.17;;;5.80;;
3207;SDS011;1616;52.394;9.756;2024-01-16T13:38:08;5.93;;;4.67;;
3207;SDS011;1616;52.394;9.756;2024-01-16T13:40:35;9.17;;;5.57;;
3207;SDS011;1616;52.394;9.756;2024-01-16T13:43:05;6.80;;;5.30;;
3207;SDS011;1616;52.394;9.756;2024-01-16T13:45:34;9.57;;;5.60;;
3207;SDS011;1616;52.394;9.756;2024-01-16T13:48:01;10.33;;;6.23;;
3207;SDS011;1616;52.394;9.756;2024-01-16T13:50:27;9.07;;;6.37;;
3207;SDS011;1616;52.394;9.756;2024-01-16T13:52:53;11.00;;;6.70;;
3207;SDS011;1616;52.394;9.756;2024-01-16T13:55:20;12.10;;;6.80;;
3207;SDS011;1616;52.394;9.756;2024-01-16T13:57:45;8.47;;;7.07;;
3207;SDS011;1616;52.394;9.756;2024-01-16T14:00:12;9.67;;;7.50;;
3207;SDS011;1616;52.394;9.756;2024-01-16T14:02:39;9.90;;;7.50;;
3207;SDS011;1616;52.394;9.756;2024-01-16T14:05:07;10.40;;;7.70;;
3207;SDS011;1616;52.394;9.756;2024-01-16T14:07:37;15.20;;;8.73;;
3207;SDS011;1616;52.394;9.756;2024-01-16T14:10:10;19.87;;;9.43;;
3207;SDS011;1616;52.394;9.756;2024-01-16T14:12:37;16.27;;;9.67;;
3207;SDS011;1616;52.394;9.756;2024-01-16T14:15:03;18.27;;;9.27;;
3207;SDS011;1616;52.394;9.756;2024-01-16T14:17:34;17.23;;;10.00;;
3207;SDS011;1616;52.394;9.756;2024-01-16T14:20:00;15.63;;;8.30;;
3207;SDS011;1616;52.394;9.756;2024-01-16T14:22:27;18.87;;;8.47;;
3207;SDS011;1616;52.394;9.756;2024-01-16T14:24:54;14.50;;;12.13;;
3207;SDS011;1616;52.394;9.756;2024-01-16T14:27:19;20.20;;;9.70;;
3207;SDS011;1616;52.394;9.756;2024-01-16T14:29:45;22.63;;;9.43;;
3207;SDS011;1616;52.394;9.756;2024-01-16T14:32:10;15.63;;;9.07;;
3207;SDS011;1616;52.394;9.756;2024-01-16T14:34:36;18.47;;;11.23;;
3207;SDS011;1616;52.394;9.756;2024-01-16T14:37:02;15.60;;;9.17;;
3207;SDS011;1616;52.394;9.756;2024-01-16T14:39:28;19.03;;;10.37;;
3207;SDS011;1616;52.394;9.756;2024-01-16T14:41:56;9.60;;;7.90;;
3207;SDS011;1616;52.394;9.756;2024-01-16T14:44:23;12.70;;;9.57;;
3207;SDS011;1616;52.394;9.756;2024-01-16T14:46:49;12.70;;;11.47;;
3207;SDS011;1616;52.394;9.756;2024-01-16T14:49:15;12.90;;;7.90;;
3207;SDS011;1616;52.394;9.756;2024-01-16T14:51:41;14.73;;;9.53;;
3207;SDS011;1616;52.394;9.756;2024-01-16T14:54:09;13.30;;;8.03;;
3207;SDS011;1616;52.394;9.756;2024-01-16T14:56:34;18.97;;;9.97;;
3207;SDS011;1616;52.394;9.756;2024-01-16T14:59:00;10.37;;;8.40;;
3207;SDS011;1616;52.394;9.756;2024-01-16T15:01:25;12.60;;;7.57;;
3207;SDS011;1616;52.394;9.756;2024-01-16T15:03:51;19.10;;;9.20;;
3207;SDS011;1616;52.394;9.756;2024-01-16T15:06:18;7.63;;;6.97;;
3207;SDS011;1616;52.394;9.756;2024-01-16T15:08:44;13.97;;;7.90;;
3207;SDS011;1616;52.394;9.756;2024-01-16T15:11:10;10.47;;;8.10;;
3207;SDS011;1616;52.394;9.756;2024-01-16T15:13:39;12.33;;;7.60;;
3207;SDS011;1616;52.394;9.756;2024-01-16T15:16:05;7.93;;;7.13;;
3207;SDS011;1616;52.394;9.756;2024-01-16T15:18:31;10.33;;;6.93;;
3207;SDS011;1616;52.394;9.756;2024-01-16T15:20:58;14.63;;;7.30;;
3207;SDS011;1616;52.394;9.756;2024-01-16T15:23:25;6.93;;;6.33;;
3207;SDS011;1616;52.394;9.756;2024-01-16T15:25:52;10.67;;;6.60;;
3207;SDS011;1616;52.394;9.756;2024-01-16T15:28:19;12.10;;;6.37;;